createdAt,value
2018-04-27T00:00:10.627Z,8.16666666667
2018-04-27T00:00:23.109Z,8.16666666667
2018-04-27T00:00:35.533Z,8.16666666667
2018-04-27T00:00:47.965Z,8.22222222222
2018-04-27T00:01:00.392Z,8.22222222222
2018-04-27T00:01:12.808Z,8.16666666667
2018-04-27T00:01:25.240Z,8.16666666667
2018-04-27T00:01:37.655Z,8.16666666667
2018-04-27T00:01:50.088Z,8.16666666667
2018-04-27T00:02:02.532Z,8.16666666667
2018-04-27T00:02:15.038Z,8.16666666667
2018-04-27T00:02:27.463Z,8.16666666667
2018-04-27T00:02:39.912Z,8.16666666667
2018-04-27T00:02:52.335Z,8.16666666667
2018-04-27T00:03:04.756Z,8.16666666667
2018-04-27T00:03:17.208Z,8.22222222222
2018-04-27T00:03:29.652Z,8.16666666667
2018-04-27T00:03:42.082Z,8.16666666667
2018-04-27T00:03:54.492Z,8.16666666667
2018-04-27T00:04:06.912Z,8.16666666667
2018-04-27T00:04:19.325Z,8.16666666667
2018-04-27T00:04:31.743Z,8.16666666667
2018-04-27T00:04:44.162Z,8.16666666667
2018-04-27T00:04:56.566Z,8.16666666667
2018-04-27T00:05:09.874Z,8.16666666667
2018-04-27T00:05:22.504Z,8.16666666667
2018-04-27T00:05:34.916Z,8.16666666667
2018-04-27T00:05:47.319Z,8.16666666667
2018-04-27T00:05:59.733Z,8.16666666667
2018-04-27T00:06:12.148Z,8.16666666667
2018-04-27T00:06:24.563Z,8.16666666667
2018-04-27T00:06:36.981Z,8.16666666667
2018-04-27T00:06:49.395Z,8.16666666667
2018-04-27T00:07:01.820Z,8.11111111111
2018-04-27T00:07:14.240Z,8.16666666667
2018-04-27T00:07:26.653Z,8.16666666667
2018-04-27T00:07:39.070Z,8.16666666667
2018-04-27T00:07:51.474Z,8.16666666667
2018-04-27T00:08:03.902Z,8.16666666667
2018-04-27T00:08:16.373Z,8.11111111111
2018-04-27T00:08:28.772Z,8.11111111111
2018-04-27T00:08:41.167Z,8.11111111111
2018-04-27T00:08:53.566Z,8.16666666667
2018-04-27T00:09:05.973Z,8.11111111111
2018-04-27T00:09:18.408Z,8.16666666667
2018-04-27T00:09:30.883Z,8.16666666667
2018-04-27T00:09:43.298Z,8.11111111111
2018-04-27T00:09:55.790Z,8.11111111111
2018-04-27T00:10:08.197Z,8.16666666667
2018-04-27T00:10:20.676Z,8.11111111111
2018-04-27T00:10:33.103Z,8.11111111111
2018-04-27T00:10:45.503Z,8.11111111111
2018-04-27T00:10:57.894Z,8.11111111111
2018-04-27T00:11:10.299Z,8.11111111111
2018-04-27T00:11:22.709Z,8.11111111111
2018-04-27T00:11:35.115Z,8.11111111111
2018-04-27T00:11:47.521Z,8.11111111111
2018-04-27T00:11:59.933Z,8.11111111111
2018-04-27T00:12:12.342Z,8.11111111111
2018-04-27T00:12:24.908Z,8.11111111111
2018-04-27T00:12:37.398Z,8.11111111111
2018-04-27T00:12:49.817Z,8.11111111111
2018-04-27T00:13:02.279Z,8.11111111111
2018-04-27T00:13:14.690Z,8.11111111111
2018-04-27T00:13:27.118Z,8.11111111111
2018-04-27T00:13:39.707Z,8.11111111111
2018-04-27T00:13:52.106Z,8.11111111111
2018-04-27T00:14:04.600Z,8.11111111111
2018-04-27T00:14:17.008Z,8.11111111111
2018-04-27T00:14:29.418Z,8.05555555556
2018-04-27T00:14:41.829Z,8.11111111111
2018-04-27T00:14:54.241Z,8.05555555556
2018-04-27T00:15:06.640Z,8.11111111111
2018-04-27T00:15:19.045Z,8.11111111111
2018-04-27T00:15:31.509Z,8.11111111111
2018-04-27T00:15:43.935Z,8.11111111111
2018-04-27T00:15:56.352Z,8.11111111111
2018-04-27T00:16:08.759Z,8.05555555556
2018-04-27T00:16:21.166Z,8.05555555556
2018-04-27T00:16:33.586Z,8.11111111111
2018-04-27T00:16:45.986Z,8.11111111111
2018-04-27T00:16:58.400Z,8.11111111111
2018-04-27T00:17:10.796Z,8.11111111111
2018-04-27T00:17:23.209Z,8.05555555556
2018-04-27T00:17:35.623Z,8.11111111111
2018-04-27T00:17:48.030Z,8.05555555556
2018-04-27T00:18:00.434Z,8.05555555556
2018-04-27T00:18:12.854Z,8.11111111111
2018-04-27T00:18:25.411Z,8.05555555556
2018-04-27T00:18:37.954Z,8.05555555556
2018-04-27T00:18:50.354Z,8.11111111111
2018-04-27T00:19:02.766Z,8.11111111111
2018-04-27T00:19:15.246Z,8.11111111111
2018-04-27T00:19:27.695Z,8.05555555556
2018-04-27T00:19:40.190Z,8.05555555556
2018-04-27T00:19:52.595Z,8.05555555556
2018-04-27T00:20:05.003Z,8.05555555556
2018-04-27T00:20:17.423Z,8.05555555556
2018-04-27T00:20:29.818Z,8.05555555556
2018-04-27T00:20:42.225Z,8.05555555556
2018-04-27T00:20:54.645Z,8.05555555556
2018-04-27T00:21:07.049Z,8.05555555556
2018-04-27T00:21:19.449Z,8.05555555556
2018-04-27T00:21:31.869Z,8.05555555556
2018-04-27T00:21:44.310Z,8.05555555556
2018-04-27T00:21:56.929Z,8.05555555556
2018-04-27T00:22:09.335Z,8.05555555556
2018-04-27T00:22:21.748Z,8.05555555556
2018-04-27T00:22:34.147Z,8.05555555556
2018-04-27T00:22:46.552Z,8.05555555556
2018-04-27T00:22:58.966Z,8.05555555556
2018-04-27T00:23:11.387Z,8.05555555556
2018-04-27T00:23:23.818Z,8.05555555556
2018-04-27T00:23:36.232Z,8.05555555556
2018-04-27T00:23:48.646Z,8.05555555556
2018-04-27T00:24:01.057Z,8.05555555556
2018-04-27T00:24:13.464Z,8.05555555556
2018-04-27T00:24:25.873Z,8.05555555556
2018-04-27T00:24:38.323Z,8.05555555556
2018-04-27T00:24:50.789Z,8.05555555556
2018-04-27T00:25:03.209Z,8.05555555556
2018-04-27T00:25:15.610Z,8.05555555556
2018-04-27T00:25:28.069Z,8.05555555556
2018-04-27T00:25:40.475Z,8.05555555556
2018-04-27T00:25:52.937Z,8.05555555556
2018-04-27T00:26:05.361Z,8.05555555556
2018-04-27T00:26:17.775Z,8.05555555556
2018-04-27T00:26:30.189Z,8.05555555556
2018-04-27T00:26:42.591Z,8.05555555556
2018-04-27T00:26:55.034Z,8.05555555556
2018-04-27T00:27:07.462Z,8.05555555556
2018-04-27T00:27:19.878Z,8.05555555556
2018-04-27T00:27:32.299Z,8.05555555556
2018-04-27T00:27:44.716Z,8.05555555556
2018-04-27T00:27:57.148Z,8.05555555556
2018-04-27T00:28:09.625Z,8.05555555556
2018-04-27T00:28:22.053Z,8.05555555556
2018-04-27T00:28:34.448Z,8.05555555556
2018-04-27T00:28:46.872Z,8.05555555556
2018-04-27T00:28:59.271Z,8.05555555556
2018-04-27T00:29:11.674Z,8.05555555556
2018-04-27T00:29:24.158Z,8.05555555556
2018-04-27T00:29:36.591Z,8.05555555556
2018-04-27T00:29:48.991Z,8.05555555556
2018-04-27T00:30:01.428Z,8.05555555556
2018-04-27T00:30:13.924Z,8.05555555556
2018-04-27T00:30:26.444Z,8.05555555556
2018-04-27T00:30:38.855Z,8
2018-04-27T00:30:51.256Z,8.05555555556
2018-04-27T00:31:03.671Z,8.05555555556
2018-04-27T00:31:16.084Z,8.05555555556
2018-04-27T00:31:28.500Z,8
2018-04-27T00:31:40.921Z,8.05555555556
2018-04-27T00:31:53.343Z,8.05555555556
2018-04-27T00:32:05.752Z,8.05555555556
2018-04-27T00:32:18.168Z,8.05555555556
2018-04-27T00:32:30.585Z,8.05555555556
2018-04-27T00:32:42.999Z,8.05555555556
2018-04-27T00:32:55.404Z,8.05555555556
2018-04-27T00:33:07.809Z,8
2018-04-27T00:33:20.221Z,8.05555555556
2018-04-27T00:33:32.627Z,8.05555555556
2018-04-27T00:33:45.179Z,8.05555555556
2018-04-27T00:33:57.716Z,8.05555555556
2018-04-27T00:34:10.130Z,8.05555555556
2018-04-27T00:34:22.889Z,8.05555555556
2018-04-27T00:34:36.046Z,8.05555555556
2018-04-27T00:34:48.472Z,8.05555555556
2018-04-27T00:35:00.885Z,8.05555555556
2018-04-27T00:35:13.284Z,8.05555555556
2018-04-27T00:35:25.714Z,8.05555555556
2018-04-27T00:35:38.134Z,8.05555555556
2018-04-27T00:35:50.535Z,8.05555555556
2018-04-27T00:36:02.957Z,8.05555555556
2018-04-27T00:36:15.381Z,8.05555555556
2018-04-27T00:36:27.867Z,8.05555555556
2018-04-27T00:36:40.277Z,8.05555555556
2018-04-27T00:36:52.679Z,8.05555555556
2018-04-27T00:37:05.099Z,8.05555555556
2018-04-27T00:37:17.506Z,8.05555555556
2018-04-27T00:37:29.984Z,8.05555555556
2018-04-27T00:37:42.406Z,8.05555555556
2018-04-27T00:37:54.818Z,8.05555555556
2018-04-27T00:38:07.233Z,8.05555555556
2018-04-27T00:38:19.697Z,8.05555555556
2018-04-27T00:38:32.105Z,8.05555555556
2018-04-27T00:38:44.529Z,8.05555555556
2018-04-27T00:38:56.947Z,8.05555555556
2018-04-27T00:39:09.364Z,8.05555555556
2018-04-27T00:39:21.766Z,8.05555555556
2018-04-27T00:39:34.182Z,8.05555555556
2018-04-27T00:39:46.631Z,8.05555555556
2018-04-27T00:39:59.046Z,8.05555555556
2018-04-27T00:40:11.488Z,8.05555555556
2018-04-27T00:40:24.027Z,8.05555555556
2018-04-27T00:40:36.440Z,8.05555555556
2018-04-27T00:40:48.840Z,8.05555555556
2018-04-27T00:41:01.260Z,8.05555555556
2018-04-27T00:41:13.674Z,8.05555555556
2018-04-27T00:41:26.099Z,8.05555555556
2018-04-27T00:41:38.511Z,8.05555555556
2018-04-27T00:41:51.015Z,8.05555555556
2018-04-27T00:42:03.433Z,8.05555555556
2018-04-27T00:42:15.846Z,8.05555555556
2018-04-27T00:42:28.302Z,8.11111111111
2018-04-27T00:42:40.710Z,8.05555555556
2018-04-27T00:42:53.128Z,8.05555555556
2018-04-27T00:43:05.536Z,8.05555555556
2018-04-27T00:43:17.951Z,8.05555555556
2018-04-27T00:43:30.374Z,8.05555555556
2018-04-27T00:43:42.784Z,8.05555555556
2018-04-27T00:43:55.204Z,8.05555555556
2018-04-27T00:44:07.689Z,8.11111111111
2018-04-27T00:44:20.102Z,8.05555555556
2018-04-27T00:44:32.531Z,8.11111111111
2018-04-27T00:44:44.935Z,8.05555555556
2018-04-27T00:44:57.440Z,8.05555555556
2018-04-27T00:45:09.845Z,8.05555555556
2018-04-27T00:45:22.303Z,8.05555555556
2018-04-27T00:45:34.834Z,8.11111111111
2018-04-27T00:45:47.385Z,8.11111111111
2018-04-27T00:45:59.786Z,8.11111111111
2018-04-27T00:46:12.199Z,8.11111111111
2018-04-27T00:46:24.607Z,8.05555555556
2018-04-27T00:46:37.036Z,8.05555555556
2018-04-27T00:46:49.436Z,8.11111111111
2018-04-27T00:47:01.843Z,8.05555555556
2018-04-27T00:47:14.240Z,8.11111111111
2018-04-27T00:47:26.663Z,8.11111111111
2018-04-27T00:47:39.066Z,8.11111111111
2018-04-27T00:47:51.499Z,8.11111111111
2018-04-27T00:48:03.911Z,8.11111111111
2018-04-27T00:48:16.474Z,8.11111111111
2018-04-27T00:48:28.895Z,8.11111111111
2018-04-27T00:48:41.303Z,8.11111111111
2018-04-27T00:48:53.749Z,8.11111111111
2018-04-27T00:49:06.173Z,8.05555555556
2018-04-27T00:49:18.575Z,8.11111111111
2018-04-27T00:49:31.037Z,8.11111111111
2018-04-27T00:49:43.455Z,8.11111111111
2018-04-27T00:49:55.857Z,8.11111111111
2018-04-27T00:50:08.491Z,8.16666666667
2018-04-27T00:50:20.907Z,8.11111111111
2018-04-27T00:50:33.308Z,8.11111111111
2018-04-27T00:50:45.712Z,8.11111111111
2018-04-27T00:50:58.110Z,8.11111111111
2018-04-27T00:51:10.515Z,8.11111111111
2018-04-27T00:51:22.935Z,8.11111111111
2018-04-27T00:51:35.346Z,8.11111111111
2018-04-27T00:51:47.767Z,8.16666666667
2018-04-27T00:52:00.200Z,8.11111111111
2018-04-27T00:52:12.600Z,8.11111111111
2018-04-27T00:52:24.993Z,8.16666666667
2018-04-27T00:52:37.455Z,8.11111111111
2018-04-27T00:52:49.856Z,8.11111111111
2018-04-27T00:53:02.281Z,8.16666666667
2018-04-27T00:53:14.691Z,8.11111111111
2018-04-27T00:53:27.092Z,8.11111111111
2018-04-27T00:53:39.491Z,8.16666666667
2018-04-27T00:53:51.902Z,8.11111111111
2018-04-27T00:54:04.316Z,8.11111111111
2018-04-27T00:54:16.737Z,8.16666666667
2018-04-27T00:54:29.151Z,8.16666666667
2018-04-27T00:54:41.560Z,8.16666666667
2018-04-27T00:54:53.996Z,8.16666666667
2018-04-27T00:55:06.408Z,8.16666666667
2018-04-27T00:55:18.804Z,8.16666666667
2018-04-27T00:55:31.219Z,8.16666666667
2018-04-27T00:55:43.634Z,8.16666666667
2018-04-27T00:55:56.023Z,8.16666666667
2018-04-27T00:56:08.432Z,8.16666666667
2018-04-27T00:56:20.831Z,8.16666666667
2018-04-27T00:56:33.234Z,8.16666666667
2018-04-27T00:56:45.643Z,8.16666666667
2018-04-27T00:56:58.049Z,8.16666666667
2018-04-27T00:57:10.464Z,8.16666666667
2018-04-27T00:57:22.954Z,8.16666666667
2018-04-27T00:57:35.403Z,8.16666666667
2018-04-27T00:57:47.811Z,8.16666666667
2018-04-27T00:58:00.240Z,8.16666666667
2018-04-27T00:58:12.650Z,8.16666666667
2018-04-27T00:58:25.057Z,8.16666666667
2018-04-27T00:58:37.479Z,8.16666666667
2018-04-27T00:58:49.887Z,8.16666666667
2018-04-27T00:59:02.304Z,8.16666666667
2018-04-27T00:59:14.719Z,8.16666666667
2018-04-27T00:59:27.114Z,8.16666666667
2018-04-27T00:59:39.576Z,8.16666666667
2018-04-27T00:59:51.970Z,8.16666666667
2018-04-27T01:00:04.461Z,8.16666666667
2018-04-27T01:00:16.919Z,8.16666666667
2018-04-27T01:00:29.385Z,8.22222222222
2018-04-27T01:00:41.833Z,8.16666666667
2018-04-27T01:00:54.239Z,8.16666666667
2018-04-27T01:01:06.663Z,8.16666666667
2018-04-27T01:01:19.089Z,8.22222222222
2018-04-27T01:01:31.496Z,8.16666666667
2018-04-27T01:01:43.897Z,8.16666666667
2018-04-27T01:01:56.311Z,8.16666666667
2018-04-27T01:02:08.721Z,8.16666666667
2018-04-27T01:02:21.123Z,8.16666666667
2018-04-27T01:02:33.810Z,8.16666666667
2018-04-27T01:02:46.232Z,8.16666666667
2018-04-27T01:02:58.661Z,8.16666666667
2018-04-27T01:03:11.080Z,8.16666666667
2018-04-27T01:03:23.485Z,8.16666666667
2018-04-27T01:03:35.890Z,8.11111111111
2018-04-27T01:03:48.300Z,8.16666666667
2018-04-27T01:04:00.696Z,8.16666666667
2018-04-27T01:04:13.114Z,8.16666666667
2018-04-27T01:04:25.519Z,8.16666666667
2018-04-27T01:04:37.925Z,8.16666666667
2018-04-27T01:04:50.323Z,8.16666666667
2018-04-27T01:05:02.750Z,8.16666666667
2018-04-27T01:05:15.154Z,8.11111111111
2018-04-27T01:05:27.549Z,8.16666666667
2018-04-27T01:05:39.954Z,8.11111111111
2018-04-27T01:05:52.355Z,8.11111111111
2018-04-27T01:06:04.760Z,8.11111111111
2018-04-27T01:06:17.160Z,8.11111111111
2018-04-27T01:06:29.575Z,8.11111111111
2018-04-27T01:06:41.983Z,8.11111111111
2018-04-27T01:06:54.406Z,8.11111111111
2018-04-27T01:07:06.841Z,8.11111111111
2018-04-27T01:07:19.239Z,8.11111111111
2018-04-27T01:07:31.726Z,8.11111111111
2018-04-27T01:07:44.208Z,8.11111111111
2018-04-27T01:07:56.604Z,8.11111111111
2018-04-27T01:08:09.032Z,8.11111111111
2018-04-27T01:08:21.454Z,8.05555555556
2018-04-27T01:08:33.849Z,8.11111111111
2018-04-27T01:08:46.249Z,8.05555555556
2018-04-27T01:08:58.727Z,8.05555555556
2018-04-27T01:09:11.145Z,8.05555555556
2018-04-27T01:09:23.543Z,8.05555555556
2018-04-27T01:09:35.957Z,8.05555555556
2018-04-27T01:09:48.435Z,8.05555555556
2018-04-27T01:10:01.043Z,8.05555555556
2018-04-27T01:10:13.475Z,8.05555555556
2018-04-27T01:10:25.896Z,8.05555555556
2018-04-27T01:10:38.317Z,8.05555555556
2018-04-27T01:10:50.732Z,8.05555555556
2018-04-27T01:11:03.144Z,8.05555555556
2018-04-27T01:11:15.555Z,8.05555555556
2018-04-27T01:11:27.959Z,8.05555555556
2018-04-27T01:11:40.376Z,8
2018-04-27T01:11:52.806Z,8.05555555556
2018-04-27T01:12:05.220Z,8.05555555556
2018-04-27T01:12:17.631Z,8.05555555556
2018-04-27T01:12:30.065Z,8.05555555556
2018-04-27T01:12:42.467Z,8.05555555556
2018-04-27T01:12:54.897Z,8.05555555556
2018-04-27T01:13:07.391Z,8
2018-04-27T01:13:19.878Z,8
2018-04-27T01:13:32.289Z,8
2018-04-27T01:13:44.852Z,8
2018-04-27T01:13:57.251Z,8
2018-04-27T01:14:09.686Z,8
2018-04-27T01:14:22.135Z,8
2018-04-27T01:14:34.553Z,8
2018-04-27T01:14:46.970Z,7.94444444444
2018-04-27T01:14:59.377Z,7.94444444444
2018-04-27T01:15:11.960Z,7.94444444444
2018-04-27T01:15:24.380Z,7.94444444444
2018-04-27T01:15:36.804Z,7.94444444444
2018-04-27T01:15:49.213Z,7.94444444444
2018-04-27T01:16:01.638Z,7.94444444444
2018-04-27T01:16:14.044Z,7.94444444444
2018-04-27T01:16:26.463Z,7.94444444444
2018-04-27T01:16:38.871Z,7.94444444444
2018-04-27T01:16:51.313Z,7.94444444444
2018-04-27T01:17:03.731Z,7.88888888889
2018-04-27T01:17:16.146Z,7.88888888889
2018-04-27T01:17:28.547Z,7.88888888889
2018-04-27T01:17:40.957Z,7.83333333333
2018-04-27T01:17:53.366Z,7.83333333333
2018-04-27T01:18:05.765Z,7.88888888889
2018-04-27T01:18:18.169Z,7.88888888889
2018-04-27T01:18:30.914Z,7.83333333333
2018-04-27T01:18:43.323Z,7.83333333333
2018-04-27T01:18:55.741Z,7.83333333333
2018-04-27T01:19:08.160Z,7.83333333333
2018-04-27T01:19:20.564Z,7.83333333333
2018-04-27T01:19:32.976Z,7.83333333333
2018-04-27T01:19:45.373Z,7.77777777778
2018-04-27T01:19:57.793Z,7.77777777778
2018-04-27T01:20:10.252Z,7.83333333333
2018-04-27T01:20:22.683Z,7.77777777778
2018-04-27T01:20:35.086Z,7.77777777778
2018-04-27T01:20:47.504Z,7.77777777778
2018-04-27T01:20:59.904Z,7.77777777778
2018-04-27T01:21:12.308Z,7.77777777778
2018-04-27T01:21:24.715Z,7.77777777778
2018-04-27T01:21:37.126Z,7.77777777778
2018-04-27T01:21:49.538Z,7.77777777778
2018-04-27T01:22:02.187Z,7.77777777778
2018-04-27T01:22:14.588Z,7.77777777778
2018-04-27T01:22:27.174Z,7.77777777778
2018-04-27T01:22:39.584Z,7.72222222222
2018-04-27T01:22:51.996Z,7.77777777778
2018-04-27T01:23:04.408Z,7.72222222222
2018-04-27T01:23:16.804Z,7.72222222222
2018-04-27T01:23:29.205Z,7.72222222222
2018-04-27T01:23:41.612Z,7.72222222222
2018-04-27T01:23:54.039Z,7.72222222222
2018-04-27T01:24:06.468Z,7.66666666667
2018-04-27T01:24:18.879Z,7.66666666667
2018-04-27T01:24:31.289Z,7.66666666667
2018-04-27T01:24:43.699Z,7.66666666667
2018-04-27T01:24:56.115Z,7.66666666667
2018-04-27T01:25:08.531Z,7.66666666667
2018-04-27T01:25:20.940Z,7.66666666667
2018-04-27T01:25:33.345Z,7.66666666667
2018-04-27T01:25:45.762Z,7.66666666667
2018-04-27T01:25:58.165Z,7.61111111111
2018-04-27T01:26:10.629Z,7.61111111111
2018-04-27T01:26:23.045Z,7.61111111111
2018-04-27T01:26:35.463Z,7.61111111111
2018-04-27T01:26:47.884Z,7.61111111111
2018-04-27T01:27:00.292Z,7.61111111111
2018-04-27T01:27:12.692Z,7.61111111111
2018-04-27T01:27:25.127Z,7.55555555556
2018-04-27T01:27:37.532Z,7.55555555556
2018-04-27T01:27:50.056Z,7.55555555556
2018-04-27T01:28:02.449Z,7.55555555556
2018-04-27T01:28:14.867Z,7.55555555556
2018-04-27T01:28:27.274Z,7.55555555556
2018-04-27T01:28:39.761Z,7.55555555556
2018-04-27T01:28:52.201Z,7.55555555556
2018-04-27T01:29:04.616Z,7.5
2018-04-27T01:29:17.018Z,7.55555555556
2018-04-27T01:29:29.435Z,7.55555555556
2018-04-27T01:29:41.858Z,7.5
2018-04-27T01:29:54.255Z,7.55555555556
2018-04-27T01:30:06.664Z,7.5
2018-04-27T01:30:19.075Z,7.5
2018-04-27T01:30:31.472Z,7.5
2018-04-27T01:30:43.863Z,7.5
2018-04-27T01:30:56.268Z,7.5
2018-04-27T01:31:08.671Z,7.5
2018-04-27T01:31:21.098Z,7.44444444444
2018-04-27T01:31:33.512Z,7.5
2018-04-27T01:31:45.916Z,7.44444444444
2018-04-27T01:31:58.334Z,7.44444444444
2018-04-27T01:32:10.753Z,7.44444444444
2018-04-27T01:32:23.194Z,7.44444444444
2018-04-27T01:32:35.600Z,7.44444444444
2018-04-27T01:32:48.014Z,7.44444444444
2018-04-27T01:33:00.431Z,7.44444444444
2018-04-27T01:33:12.827Z,7.44444444444
2018-04-27T01:33:25.252Z,7.38888888889
2018-04-27T01:33:37.660Z,7.38888888889
2018-04-27T01:33:50.323Z,7.44444444444
2018-04-27T01:34:02.725Z,7.44444444444
2018-04-27T01:34:15.131Z,7.38888888889
2018-04-27T01:34:27.556Z,7.38888888889
2018-04-27T01:34:39.964Z,7.44444444444
2018-04-27T01:34:52.377Z,7.44444444444
2018-04-27T01:35:04.815Z,7.38888888889
2018-04-27T01:35:17.242Z,7.38888888889
2018-04-27T01:35:29.643Z,7.44444444444
2018-04-27T01:35:42.101Z,7.38888888889
2018-04-27T01:35:54.502Z,7.38888888889
2018-04-27T01:36:06.889Z,7.38888888889
2018-04-27T01:36:19.281Z,7.38888888889
2018-04-27T01:36:31.689Z,7.38888888889
2018-04-27T01:36:44.105Z,7.38888888889
2018-04-27T01:36:56.509Z,7.38888888889
2018-04-27T01:37:08.928Z,7.33333333333
2018-04-27T01:37:21.337Z,7.33333333333
2018-04-27T01:37:33.823Z,7.38888888889
2018-04-27T01:37:46.226Z,7.38888888889
2018-04-27T01:37:58.617Z,7.33333333333
2018-04-27T01:38:11.032Z,7.38888888889
2018-04-27T01:38:23.430Z,7.38888888889
2018-04-27T01:38:35.841Z,7.33333333333
2018-04-27T01:38:48.252Z,7.38888888889
2018-04-27T01:39:00.662Z,7.33333333333
2018-04-27T01:39:13.077Z,7.33333333333
2018-04-27T01:39:25.487Z,7.33333333333
2018-04-27T01:39:37.894Z,7.33333333333
2018-04-27T01:39:50.296Z,7.33333333333
2018-04-27T01:40:02.691Z,7.33333333333
2018-04-27T01:40:15.098Z,7.33333333333
2018-04-27T01:40:27.498Z,7.33333333333
2018-04-27T01:40:40.471Z,7.33333333333
2018-04-27T01:40:52.880Z,7.33333333333
2018-04-27T01:41:05.300Z,7.33333333333
2018-04-27T01:41:17.698Z,7.33333333333
2018-04-27T01:41:30.101Z,7.33333333333
2018-04-27T01:41:42.516Z,7.33333333333
2018-04-27T01:41:54.935Z,7.27777777778
2018-04-27T01:42:07.348Z,7.33333333333
2018-04-27T01:42:19.757Z,7.33333333333
2018-04-27T01:42:32.165Z,7.27777777778
2018-04-27T01:42:44.587Z,7.33333333333
2018-04-27T01:42:56.994Z,7.33333333333
2018-04-27T01:43:09.513Z,7.27777777778
2018-04-27T01:43:21.930Z,7.27777777778
2018-04-27T01:43:34.343Z,7.27777777778
2018-04-27T01:43:46.745Z,7.27777777778
2018-04-27T01:43:59.156Z,7.27777777778
2018-04-27T01:44:11.570Z,7.27777777778
2018-04-27T01:44:23.985Z,7.27777777778
2018-04-27T01:44:36.394Z,7.27777777778
2018-04-27T01:44:48.793Z,7.27777777778
2018-04-27T01:45:01.197Z,7.27777777778
2018-04-27T01:45:13.611Z,7.27777777778
2018-04-27T01:45:26.082Z,7.27777777778
2018-04-27T01:45:38.548Z,7.22222222222
2018-04-27T01:45:51.110Z,7.27777777778
2018-04-27T01:46:03.512Z,7.27777777778
2018-04-27T01:46:15.949Z,7.27777777778
2018-04-27T01:46:28.369Z,7.27777777778
2018-04-27T01:46:40.851Z,7.27777777778
2018-04-27T01:46:53.252Z,7.27777777778
2018-04-27T01:47:05.739Z,7.22222222222
2018-04-27T01:47:18.145Z,7.27777777778
2018-04-27T01:47:30.550Z,7.27777777778
2018-04-27T01:47:42.975Z,7.27777777778
2018-04-27T01:47:55.450Z,7.22222222222
2018-04-27T01:48:08.079Z,7.22222222222
2018-04-27T01:48:20.486Z,7.27777777778
2018-04-27T01:48:32.910Z,7.22222222222
2018-04-27T01:48:45.323Z,7.22222222222
2018-04-27T01:48:57.750Z,7.27777777778
2018-04-27T01:49:10.187Z,7.22222222222
2018-04-27T01:49:22.595Z,7.22222222222
2018-04-27T01:49:34.991Z,7.22222222222
2018-04-27T01:49:47.405Z,7.22222222222
2018-04-27T01:49:59.810Z,7.22222222222
2018-04-27T01:50:12.433Z,7.27777777778
2018-04-27T01:50:24.880Z,7.22222222222
2018-04-27T01:50:37.286Z,7.22222222222
2018-04-27T01:50:49.692Z,7.22222222222
2018-04-27T01:51:02.191Z,7.22222222222
2018-04-27T01:51:14.594Z,7.27777777778
2018-04-27T01:51:26.995Z,7.27777777778
2018-04-27T01:51:39.443Z,7.22222222222
2018-04-27T01:51:51.854Z,7.22222222222
2018-04-27T01:52:04.263Z,7.22222222222
2018-04-27T01:52:16.672Z,7.22222222222
2018-04-27T01:52:29.085Z,7.22222222222
2018-04-27T01:52:41.849Z,7.16666666667
2018-04-27T01:52:54.256Z,7.22222222222
2018-04-27T01:53:06.672Z,7.22222222222
2018-04-27T01:53:19.093Z,7.22222222222
2018-04-27T01:53:31.491Z,7.16666666667
2018-04-27T01:53:43.901Z,7.16666666667
2018-04-27T01:53:56.335Z,7.22222222222
2018-04-27T01:54:08.744Z,7.16666666667
2018-04-27T01:54:21.156Z,7.16666666667
2018-04-27T01:54:33.566Z,7.16666666667
2018-04-27T01:54:45.980Z,7.16666666667
2018-04-27T01:54:58.404Z,7.16666666667
2018-04-27T01:55:10.823Z,7.16666666667
2018-04-27T01:55:23.241Z,7.16666666667
2018-04-27T01:55:35.655Z,7.16666666667
2018-04-27T01:55:48.074Z,7.16666666667
2018-04-27T01:56:00.484Z,7.16666666667
2018-04-27T01:56:12.897Z,7.16666666667
2018-04-27T01:56:25.295Z,7.16666666667
2018-04-27T01:56:37.704Z,7.16666666667
2018-04-27T01:56:50.124Z,7.16666666667
2018-04-27T01:57:02.531Z,7.16666666667
2018-04-27T01:57:14.928Z,7.16666666667
2018-04-27T01:57:27.345Z,7.16666666667
2018-04-27T01:57:39.740Z,7.16666666667
2018-04-27T01:57:52.285Z,7.16666666667
2018-04-27T01:58:04.681Z,7.11111111111
2018-04-27T01:58:17.152Z,7.11111111111
2018-04-27T01:58:29.551Z,7.16666666667
2018-04-27T01:58:41.954Z,7.16666666667
2018-04-27T01:58:54.367Z,7.16666666667
2018-04-27T01:59:06.769Z,7.16666666667
2018-04-27T01:59:19.186Z,7.11111111111
2018-04-27T01:59:31.602Z,7.11111111111
2018-04-27T01:59:44.026Z,7.11111111111
2018-04-27T01:59:56.457Z,7.11111111111
2018-04-27T02:00:08.879Z,7.11111111111
2018-04-27T02:00:21.322Z,7.11111111111
2018-04-27T02:00:33.766Z,7.11111111111
2018-04-27T02:00:46.189Z,7.11111111111
2018-04-27T02:00:58.611Z,7.11111111111
2018-04-27T02:01:11.066Z,7.11111111111
2018-04-27T02:01:23.458Z,7.11111111111
2018-04-27T02:01:35.863Z,7.11111111111
2018-04-27T02:01:48.292Z,7.11111111111
2018-04-27T02:02:00.840Z,7.11111111111
2018-04-27T02:02:13.261Z,7.11111111111
2018-04-27T02:02:25.706Z,7.11111111111
2018-04-27T02:02:38.112Z,7.05555555556
2018-04-27T02:02:50.510Z,7.05555555556
2018-04-27T02:03:02.914Z,7.11111111111
2018-04-27T02:03:15.337Z,7.05555555556
2018-04-27T02:03:27.753Z,7.05555555556
2018-04-27T02:03:40.159Z,7.05555555556
2018-04-27T02:03:52.558Z,7.05555555556
2018-04-27T02:04:04.961Z,7.05555555556
2018-04-27T02:04:17.370Z,7.05555555556
2018-04-27T02:04:29.779Z,7.05555555556
2018-04-27T02:04:42.191Z,7.05555555556
2018-04-27T02:04:54.604Z,7.05555555556
2018-04-27T02:05:06.996Z,7.05555555556
2018-04-27T02:05:19.426Z,7
2018-04-27T02:05:31.832Z,7.05555555556
2018-04-27T02:05:44.242Z,7.05555555556
2018-04-27T02:05:56.641Z,7.05555555556
2018-04-27T02:06:09.563Z,7.05555555556
2018-04-27T02:06:21.970Z,7
2018-04-27T02:06:34.733Z,7.05555555556
2018-04-27T02:06:47.164Z,7
2018-04-27T02:06:59.646Z,7
2018-04-27T02:07:12.059Z,7
2018-04-27T02:07:24.478Z,7
2018-04-27T02:07:37.047Z,7
2018-04-27T02:07:49.465Z,7
2018-04-27T02:08:01.879Z,7
2018-04-27T02:08:14.283Z,7
2018-04-27T02:08:26.699Z,7
2018-04-27T02:08:39.094Z,7
2018-04-27T02:08:51.507Z,7
2018-04-27T02:09:03.909Z,7
2018-04-27T02:09:16.325Z,7
2018-04-27T02:09:28.741Z,7